Dover Foxcroft, Maine
Current Conditions -  °F | °C
As of 1:53 PM on Friday 31 Oct 2014 (Local Time) from KBGR Reporting Station
Broken Clouds Broken Clouds  
Wind Chill:   Ceiling: 4700
Heat Index:   Visibility: 10mi
Dew Point: -1°   Wind: 6mph
Humidity: 50%   Direction: 350°N
Pressure: 30.03"   Gusts: NA
Location:  45.19°N, 69.23°W
Report Text: KBGR 311753Z 35005KT 10SM BKN047 BKN060 09/M01 A3003 RMK AO2 SLP170 T00941006 10100 20011 56010
Loading
Personal Weather Stations






























Interactive Weather Map
Tropical Storm Tracking
New forecast layout! Learn more

10-Day Weather Forecast

Advertisements
Track Severe Weather on mobile